createdAt,value
2019-04-14T00:00:23.634Z,35.77
2019-04-14T00:02:44.721Z,37.23
2019-04-14T00:04:50.829Z,36.10
2019-04-14T00:06:54.786Z,37.70
2019-04-14T00:08:58.711Z,38.70
2019-04-14T00:11:02.412Z,36.93
2019-04-14T00:13:06.773Z,38.13
2019-04-14T00:15:24.387Z,38.83
2019-04-14T00:17:17.874Z,37.83
2019-04-14T00:19:21.799Z,37.07
2019-04-14T00:21:26.072Z,38.13
2019-04-14T00:23:30.424Z,37.47
2019-04-14T00:25:34.786Z,38.43
2019-04-14T00:27:38.867Z,38.93
2019-04-14T00:29:43.625Z,38.53
2019-04-14T00:31:47.935Z,39.30
2019-04-14T00:33:54.263Z,37.77
2019-04-14T00:36:00.230Z,40.70
2019-04-14T00:38:17.648Z,40.93
2019-04-14T00:40:27.081Z,39.80
2019-04-14T00:42:47.371Z,42.70
2019-04-14T00:44:53.750Z,39.93
2019-04-14T00:47:00.536Z,41.50
2019-04-14T00:49:04.976Z,40.60
2019-04-14T00:51:09.192Z,42.03
2019-04-14T00:53:13.943Z,41.40
2019-04-14T00:55:18.335Z,39.60
2019-04-14T00:57:22.412Z,40.60
2019-04-14T00:59:26.810Z,40.80
2019-04-14T01:01:30.893Z,41.27
2019-04-14T01:03:35.202Z,40.87
2019-04-14T01:05:39.350Z,40.83
2019-04-14T01:07:43.442Z,42.17
2019-04-14T01:09:47.116Z,43.47
2019-04-14T01:11:51.081Z,40.43
2019-04-14T01:13:55.114Z,39.33
2019-04-14T01:16:07.193Z,40.20
2019-04-14T01:18:04.214Z,42.47
2019-04-14T01:20:07.973Z,39.97
2019-04-14T01:22:12.002Z,41.57
2019-04-14T01:24:16.375Z,39.67
2019-04-14T01:26:20.349Z,39.60
2019-04-14T01:28:24.422Z,39.67
2019-04-14T01:30:28.410Z,39.67
2019-04-14T01:32:32.652Z,41.93
2019-04-14T01:34:37.006Z,39.20
2019-04-14T01:36:40.949Z,38.83
2019-04-14T01:38:44.997Z,39.23
2019-04-14T01:40:48.876Z,38.90
2019-04-14T01:42:52.821Z,38.80
2019-04-14T01:44:57.072Z,38.17
2019-04-14T01:47:01.047Z,40.00
2019-04-14T01:49:05.005Z,38.17
2019-04-14T01:51:20.267Z,42.57
2019-04-14T01:53:44.604Z,40.83
2019-04-14T01:55:54.890Z,38.77
2019-04-14T01:58:01.032Z,38.57
2019-04-14T02:00:20.885Z,40.53
2019-04-14T02:02:26.990Z,39.87
2019-04-14T02:04:31.269Z,40.27
2019-04-14T02:06:35.613Z,38.57
2019-04-14T02:08:39.397Z,40.80
2019-04-14T02:10:43.468Z,41.70
2019-04-14T02:12:47.412Z,43.47
2019-04-14T02:14:51.622Z,41.47
2019-04-14T02:16:58.770Z,41.30
2019-04-14T02:19:00.884Z,42.07
2019-04-14T02:21:06.444Z,40.30
2019-04-14T02:23:10.419Z,39.37
2019-04-14T02:25:14.321Z,40.17
2019-04-14T02:27:18.824Z,40.30
2019-04-14T02:29:23.332Z,40.33
2019-04-14T02:31:54.441Z,42.20
2019-04-14T02:34:17.056Z,40.63
2019-04-14T02:38:18.202Z,38.47
2019-04-14T02:40:24.302Z,39.00
2019-04-14T02:42:30.952Z,39.67
2019-04-14T02:44:33.548Z,38.60
2019-04-14T02:46:38.406Z,40.83
2019-04-14T02:48:44.157Z,39.27
2019-04-14T02:50:42.215Z,38.80
2019-04-14T02:54:59.612Z,39.47
2019-04-14T02:57:03.659Z,41.07
2019-04-14T03:01:21.354Z,40.17
2019-04-14T03:03:16.092Z,38.43
2019-04-14T03:05:16.403Z,40.43
2019-04-14T03:09:36.405Z,41.70
2019-04-14T03:11:41.593Z,40.13
2019-04-14T03:13:49.546Z,40.37
2019-04-14T03:15:47.834Z,39.50
2019-04-14T03:18:00.555Z,42.13
2019-04-14T03:20:15.292Z,41.97
2019-04-14T03:24:27.443Z,41.57
2019-04-14T03:26:35.280Z,41.23
2019-04-14T03:28:38.698Z,40.90
2019-04-14T03:37:31.526Z,41.50
2019-04-14T03:39:34.832Z,40.07
2019-04-14T03:41:24.154Z,41.47
2019-04-14T03:43:25.017Z,41.80
2019-04-14T03:45:36.475Z,40.80
2019-04-14T03:47:34.461Z,41.37
2019-04-14T03:49:54.360Z,42.00
2019-04-14T03:53:47.269Z,39.53
2019-04-14T03:55:58.519Z,41.50
2019-04-14T03:57:56.999Z,39.03
2019-04-14T04:00:00.768Z,41.30
2019-04-14T04:02:05.353Z,41.40
2019-04-14T04:04:09.838Z,42.27
2019-04-14T04:06:13.923Z,41.83
2019-04-14T04:08:18.044Z,43.30
2019-04-14T04:10:22.575Z,43.47
2019-04-14T04:12:27.177Z,42.67
2019-04-14T04:14:31.345Z,42.07
2019-04-14T04:16:37.623Z,40.83
2019-04-14T04:18:51.266Z,42.03
2019-04-14T04:20:58.730Z,42.13
2019-04-14T04:23:07.363Z,41.60
2019-04-14T04:25:13.857Z,41.70
2019-04-14T04:27:35.568Z,42.70
2019-04-14T04:29:41.781Z,39.97
2019-04-14T04:31:54.743Z,41.20
2019-04-14T04:34:03.344Z,41.23
2019-04-14T04:36:27.019Z,41.43
2019-04-14T04:38:48.707Z,42.33
2019-04-14T04:40:52.855Z,40.63
2019-04-14T04:42:56.960Z,42.17
2019-04-14T04:45:01.685Z,42.03
2019-04-14T04:47:05.800Z,40.90
2019-04-14T04:49:15.095Z,41.63
2019-04-14T04:51:15.935Z,39.60
2019-04-14T04:53:20.199Z,42.47
2019-04-14T04:55:24.200Z,41.97
2019-04-14T04:57:28.547Z,42.23
2019-04-14T04:59:32.335Z,40.80
2019-04-14T05:01:36.492Z,39.60
2019-04-14T05:03:40.683Z,40.70
2019-04-14T05:06:09.547Z,41.53
2019-04-14T05:08:13.352Z,39.87
2019-04-14T05:10:24.591Z,41.97
2019-04-14T05:12:30.591Z,41.40
2019-04-14T05:14:36.885Z,41.00
2019-04-14T05:16:41.855Z,39.33
2019-04-14T05:18:46.322Z,42.33
2019-04-14T05:20:51.019Z,41.53
2019-04-14T05:22:55.056Z,42.50
2019-04-14T05:24:59.285Z,39.80
2019-04-14T05:27:03.638Z,40.50
2019-04-14T05:29:07.808Z,39.93
2019-04-14T05:31:12.156Z,39.17
2019-04-14T05:33:16.279Z,41.60
2019-04-14T05:35:20.576Z,39.90
2019-04-14T05:37:24.740Z,39.90
2019-04-14T05:39:28.625Z,39.67
2019-04-14T05:41:33.006Z,39.33
2019-04-14T05:43:48.164Z,40.13
2019-04-14T05:45:45.862Z,39.43
2019-04-14T05:47:50.144Z,38.60
2019-04-14T05:49:56.195Z,37.47
2019-04-14T05:51:59.383Z,38.47
2019-04-14T05:54:03.439Z,37.50
2019-04-14T05:56:07.932Z,37.67
2019-04-14T05:58:12.199Z,36.53
2019-04-14T06:00:18.918Z,36.50
2019-04-14T06:02:22.783Z,36.90
2019-04-14T06:04:26.500Z,35.23
2019-04-14T06:06:30.191Z,37.30
2019-04-14T06:08:33.851Z,34.93
2019-04-14T06:10:37.558Z,35.87
2019-04-14T06:12:41.216Z,33.50
2019-04-14T06:14:44.874Z,34.27
2019-04-14T06:16:48.710Z,35.13
2019-04-14T06:18:52.369Z,35.47
2019-04-14T06:20:56.067Z,35.83
2019-04-14T06:22:59.758Z,34.53
2019-04-14T06:25:04.986Z,34.67
2019-04-14T06:27:08.670Z,34.33
2019-04-14T06:29:15.041Z,32.93
2019-04-14T06:31:38.267Z,34.23
2019-04-14T06:33:43.507Z,33.57
2019-04-14T06:36:05.252Z,32.80
2019-04-14T06:38:10.495Z,33.43
2019-04-14T06:40:14.229Z,31.23
2019-04-14T06:42:17.906Z,31.33
2019-04-14T06:44:21.601Z,31.90
2019-04-14T06:46:25.288Z,31.30
2019-04-14T06:48:28.983Z,32.30
2019-04-14T06:50:32.637Z,31.77
2019-04-14T06:52:36.421Z,30.57
2019-04-14T06:54:40.086Z,30.63
2019-04-14T06:56:43.779Z,30.73
2019-04-14T06:58:47.502Z,32.83
2019-04-14T07:00:52.979Z,31.23
2019-04-14T07:02:56.775Z,30.10
2019-04-14T07:05:00.446Z,32.53
2019-04-14T07:07:04.126Z,31.53
2019-04-14T07:09:08.158Z,31.90
2019-04-14T07:11:11.827Z,29.87
2019-04-14T07:13:15.514Z,29.17
2019-04-14T07:15:19.173Z,32.10
2019-04-14T07:17:22.884Z,29.30
2019-04-14T07:19:26.560Z,28.93
2019-04-14T07:21:30.224Z,28.57
2019-04-14T07:23:34.010Z,29.50
2019-04-14T07:25:37.657Z,28.57
2019-04-14T07:27:41.386Z,28.63
2019-04-14T07:29:49.188Z,30.43
2019-04-14T07:32:12.471Z,29.67
2019-04-14T07:34:26.951Z,30.00
2019-04-14T07:36:50.345Z,30.67
2019-04-14T07:39:10.662Z,30.20
2019-04-14T07:41:18.313Z,30.30
2019-04-14T07:43:26.122Z,29.20
2019-04-14T07:45:31.368Z,31.33
2019-04-14T07:47:39.258Z,30.63
2019-04-14T07:49:56.477Z,30.27
2019-04-14T07:52:01.735Z,29.40
2019-04-14T07:54:07.025Z,30.50
2019-04-14T07:56:12.263Z,29.30
2019-04-14T07:58:20.906Z,28.27
2019-04-14T08:00:44.199Z,28.57
2019-04-14T08:02:49.551Z,29.13
2019-04-14T08:05:00.350Z,29.70
2019-04-14T08:07:04.193Z,29.23
2019-04-14T08:09:07.985Z,28.63
2019-04-14T08:11:11.682Z,27.87
2019-04-14T08:13:15.358Z,28.03
2019-04-14T08:15:19.068Z,26.70
2019-04-14T08:17:22.726Z,27.27
2019-04-14T08:19:26.417Z,28.03
2019-04-14T08:21:30.087Z,26.90
2019-04-14T08:23:33.872Z,27.90
2019-04-14T08:25:37.654Z,28.37
2019-04-14T08:27:43.645Z,26.17
2019-04-14T08:29:47.507Z,27.70
2019-04-14T08:31:51.198Z,27.13
2019-04-14T08:33:54.846Z,27.97
2019-04-14T08:35:58.761Z,27.67
2019-04-14T08:38:02.413Z,26.63
2019-04-14T08:40:06.523Z,24.97
2019-04-14T08:42:14.573Z,25.87
2019-04-14T08:44:19.863Z,24.20
2019-04-14T08:46:25.227Z,26.67
2019-04-14T08:48:49.009Z,26.80
2019-04-14T08:50:54.286Z,25.60
2019-04-14T08:53:08.421Z,25.17
2019-04-14T08:55:13.675Z,24.10
2019-04-14T08:57:19.030Z,23.80
2019-04-14T08:59:26.859Z,24.23
2019-04-14T09:01:38.149Z,24.57
2019-04-14T09:03:45.934Z,24.40
2019-04-14T09:05:51.186Z,24.73
2019-04-14T09:07:56.545Z,26.10
2019-04-14T09:10:04.614Z,25.00
2019-04-14T09:12:15.705Z,24.80
2019-04-14T09:14:24.054Z,24.70
2019-04-14T09:16:27.799Z,24.97
2019-04-14T09:18:31.460Z,24.43
2019-04-14T09:20:35.162Z,25.73
2019-04-14T09:22:38.836Z,25.20
2019-04-14T09:24:42.506Z,25.90
2019-04-14T09:26:46.210Z,26.17
2019-04-14T09:28:49.875Z,25.30
2019-04-14T09:30:53.579Z,26.90
2019-04-14T09:32:57.259Z,25.27
2019-04-14T09:35:01.047Z,26.00
2019-04-14T09:37:04.764Z,26.50
2019-04-14T09:39:08.437Z,27.17
2019-04-14T09:41:12.279Z,26.33
2019-04-14T09:43:15.958Z,26.50
2019-04-14T09:45:19.716Z,26.97
2019-04-14T09:47:23.395Z,27.87
2019-04-14T09:49:27.070Z,25.37
2019-04-14T09:51:30.783Z,28.83
2019-04-14T09:53:34.488Z,28.13
2019-04-14T09:55:38.233Z,27.93
2019-04-14T09:57:41.951Z,26.50
2019-04-14T09:59:45.702Z,26.47
2019-04-14T10:01:49.375Z,26.20
2019-04-14T10:03:53.092Z,27.10
2019-04-14T10:05:56.764Z,27.37
2019-04-14T10:08:00.554Z,27.90
2019-04-14T10:10:04.907Z,28.63
2019-04-14T10:12:08.781Z,27.57
2019-04-14T10:14:12.478Z,27.60
2019-04-14T10:16:16.435Z,28.60
2019-04-14T10:18:20.198Z,28.13
2019-04-14T10:20:23.871Z,27.73
2019-04-14T10:22:33.792Z,27.20
2019-04-14T10:24:32.961Z,26.60
2019-04-14T10:26:36.612Z,27.93
2019-04-14T10:28:40.437Z,28.27
2019-04-14T10:30:44.107Z,29.07
2019-04-14T10:32:47.774Z,26.77
2019-04-14T10:34:51.461Z,27.40
2019-04-14T10:36:55.124Z,28.07
2019-04-14T10:38:58.818Z,27.40
2019-04-14T10:41:02.502Z,25.53
2019-04-14T10:43:06.159Z,26.43
2019-04-14T10:45:09.972Z,26.83
2019-04-14T10:47:13.672Z,26.97
2019-04-14T10:49:17.416Z,26.67
2019-04-14T10:51:29.842Z,27.10
2019-04-14T10:53:26.646Z,26.10
2019-04-14T10:55:32.763Z,28.07
2019-04-14T10:57:36.431Z,27.60
2019-04-14T10:59:40.123Z,27.77
2019-04-14T11:01:43.783Z,28.20
2019-04-14T11:03:47.449Z,28.17
2019-04-14T11:06:01.782Z,28.30
2019-04-14T11:08:05.461Z,27.50
2019-04-14T11:10:09.337Z,28.87
2019-04-14T11:12:13.002Z,28.30
2019-04-14T11:14:16.687Z,29.63
2019-04-14T11:16:20.474Z,29.90
2019-04-14T11:18:24.152Z,28.83
2019-04-14T11:20:27.839Z,27.87
2019-04-14T11:22:31.499Z,29.10
2019-04-14T11:24:35.167Z,27.37
2019-04-14T11:26:38.958Z,28.20
2019-04-14T11:28:42.634Z,28.60
2019-04-14T11:30:48.709Z,27.63
2019-04-14T11:32:56.560Z,27.67
2019-04-14T11:35:16.312Z,26.97
2019-04-14T11:37:37.191Z,27.67
2019-04-14T11:39:42.061Z,29.03
2019-04-14T11:41:45.775Z,27.37
2019-04-14T11:43:49.451Z,28.37
2019-04-14T11:45:53.236Z,28.67
2019-04-14T11:47:56.913Z,26.53
2019-04-14T11:50:00.574Z,27.97
2019-04-14T11:52:04.260Z,28.73
2019-04-14T11:54:07.935Z,26.47
2019-04-14T11:56:11.618Z,27.43
2019-04-14T11:58:15.321Z,25.50
2019-04-14T12:00:26.185Z,27.27
2019-04-14T12:02:43.378Z,27.87
2019-04-14T12:04:48.618Z,25.90
2019-04-14T12:06:53.866Z,25.97
2019-04-14T12:09:01.883Z,25.33
2019-04-14T12:11:05.572Z,24.63
2019-04-14T12:13:10.015Z,25.90
2019-04-14T12:15:16.563Z,26.87
2019-04-14T12:17:19.215Z,26.50
2019-04-14T12:19:22.871Z,26.63
2019-04-14T12:21:26.588Z,27.77
2019-04-14T12:23:30.299Z,26.47
2019-04-14T12:25:33.979Z,26.53
2019-04-14T12:27:37.676Z,26.90
2019-04-14T12:29:41.367Z,29.07
2019-04-14T12:31:46.492Z,26.67
2019-04-14T12:33:50.221Z,26.00
2019-04-14T12:35:54.094Z,26.30
2019-04-14T12:37:57.954Z,25.27
2019-04-14T12:40:02.742Z,24.87
2019-04-14T12:42:24.631Z,24.17
2019-04-14T12:44:47.033Z,24.43
2019-04-14T12:46:55.198Z,25.63
2019-04-14T12:49:03.306Z,25.07
2019-04-14T12:51:23.575Z,23.80
2019-04-14T12:53:27.267Z,24.07
2019-04-14T12:55:30.939Z,24.00
2019-04-14T12:57:36.216Z,23.90
2019-04-14T12:59:39.934Z,23.23
2019-04-14T13:02:01.106Z,24.43
2019-04-14T13:04:04.898Z,24.07
2019-04-14T13:06:08.561Z,23.73
2019-04-14T13:08:12.261Z,23.97
2019-04-14T13:10:15.935Z,23.00
2019-04-14T13:12:19.622Z,24.27
2019-04-14T13:14:23.348Z,23.57
2019-04-14T13:16:27.006Z,23.80
2019-04-14T13:18:30.717Z,22.97
2019-04-14T13:20:34.388Z,23.67
2019-04-14T13:22:38.132Z,23.33
2019-04-14T13:24:41.861Z,24.47
2019-04-14T13:26:45.534Z,24.10
2019-04-14T13:28:49.206Z,23.40
2019-04-14T13:30:53.416Z,22.50
2019-04-14T13:32:57.080Z,23.33
2019-04-14T13:35:00.846Z,22.30
2019-04-14T13:37:04.528Z,23.07
2019-04-14T13:39:08.336Z,25.77
2019-04-14T13:41:12.020Z,23.17
2019-04-14T13:43:15.699Z,24.97
2019-04-14T13:45:19.409Z,21.10
2019-04-14T13:47:23.063Z,23.23
2019-04-14T13:49:26.758Z,21.93
2019-04-14T13:51:30.463Z,21.50
2019-04-14T13:53:34.245Z,20.43
2019-04-14T13:55:37.950Z,21.47
2019-04-14T13:57:41.626Z,19.97
2019-04-14T13:59:45.373Z,20.77
2019-04-14T14:01:49.062Z,20.90
2019-04-14T14:03:52.738Z,18.63
2019-04-14T14:05:56.449Z,20.80
2019-04-14T14:08:00.109Z,19.23
2019-04-14T14:10:05.703Z,17.50
2019-04-14T14:12:27.227Z,17.97
2019-04-14T14:14:41.440Z,18.13
2019-04-14T14:17:04.798Z,18.00
2019-04-14T14:19:12.600Z,17.47
2019-04-14T14:21:17.905Z,17.77
2019-04-14T14:23:39.458Z,18.70
2019-04-14T14:25:44.733Z,17.60
2019-04-14T14:27:48.401Z,17.57
2019-04-14T14:29:52.205Z,17.73
2019-04-14T14:31:56.616Z,16.57
2019-04-14T14:34:00.385Z,16.60
2019-04-14T14:36:04.176Z,17.63
2019-04-14T14:38:07.843Z,16.50
2019-04-14T14:40:11.620Z,16.23
2019-04-14T14:42:15.322Z,15.67
2019-04-14T14:44:19.492Z,16.33
2019-04-14T14:46:31.037Z,16.67
2019-04-14T14:48:36.317Z,15.53
2019-04-14T14:50:41.558Z,17.07
2019-04-14T14:52:45.315Z,17.13
2019-04-14T14:54:48.964Z,15.50
2019-04-14T14:56:52.655Z,16.73
2019-04-14T14:58:56.319Z,16.33
2019-04-14T15:01:00.015Z,16.47
2019-04-14T15:03:03.874Z,16.80
2019-04-14T15:05:07.542Z,16.40
2019-04-14T15:07:11.236Z,15.87
2019-04-14T15:09:15.002Z,16.40
2019-04-14T15:11:18.789Z,16.10
2019-04-14T15:13:22.575Z,16.73
2019-04-14T15:15:27.709Z,15.17
2019-04-14T15:17:31.411Z,16.67
2019-04-14T15:19:35.069Z,16.33
2019-04-14T15:21:38.741Z,16.40
2019-04-14T15:23:42.422Z,15.77
2019-04-14T15:25:46.107Z,16.00
2019-04-14T15:27:49.797Z,16.20
2019-04-14T15:29:53.592Z,16.13
2019-04-14T15:31:57.254Z,16.27
2019-04-14T15:34:00.971Z,16.10
2019-04-14T15:36:04.736Z,16.67
2019-04-14T15:38:08.580Z,16.57
2019-04-14T15:40:12.443Z,16.80
2019-04-14T15:42:16.115Z,16.97
2019-04-14T15:44:19.855Z,17.83
2019-04-14T15:46:23.547Z,17.40
2019-04-14T15:48:27.263Z,16.57
2019-04-14T15:50:30.995Z,16.33
2019-04-14T15:52:34.682Z,16.40
2019-04-14T15:54:38.376Z,17.53
2019-04-14T15:56:43.627Z,16.60
2019-04-14T15:58:48.998Z,16.97
2019-04-14T16:01:12.376Z,17.27
2019-04-14T16:03:20.461Z,16.50
2019-04-14T16:05:34.502Z,16.73
2019-04-14T16:07:56.114Z,16.13
2019-04-14T16:10:13.339Z,16.03
2019-04-14T16:12:18.774Z,17.23
2019-04-14T16:14:40.508Z,17.13
2019-04-14T16:16:51.601Z,17.17
2019-04-14T16:18:56.857Z,16.30
2019-04-14T16:21:00.618Z,17.37
2019-04-14T16:23:04.697Z,18.43
2019-04-14T16:25:09.821Z,17.97
2019-04-14T16:27:27.058Z,17.60
2019-04-14T16:29:32.321Z,18.17
2019-04-14T16:31:46.308Z,16.83
2019-04-14T16:34:07.663Z,18.20
2019-04-14T16:36:11.349Z,17.83
2019-04-14T16:38:15.038Z,18.10
2019-04-14T16:40:18.835Z,17.10
2019-04-14T16:42:22.558Z,17.30
2019-04-14T16:44:26.240Z,17.27
2019-04-14T16:46:30.096Z,18.17
2019-04-14T16:48:33.791Z,17.20
2019-04-14T16:50:37.444Z,17.57
2019-04-14T16:52:45.233Z,17.20
2019-04-14T16:55:08.611Z,17.07
2019-04-14T16:57:31.699Z,18.07
2019-04-14T16:59:35.587Z,17.63
2019-04-14T17:01:41.112Z,17.47
2019-04-14T17:03:44.839Z,17.43
2019-04-14T17:05:58.890Z,17.27
2019-04-14T17:08:02.915Z,17.67
2019-04-14T17:10:06.853Z,18.23
2019-04-14T17:12:10.577Z,17.70
2019-04-14T17:14:15.898Z,18.40
2019-04-14T17:16:36.622Z,21.03
2019-04-14T17:18:41.885Z,18.53
2019-04-14T17:20:59.087Z,18.03
2019-04-14T17:23:16.694Z,18.57
2019-04-14T17:25:21.970Z,18.57
2019-04-14T17:27:27.214Z,17.73
2019-04-14T17:29:44.348Z,17.93
2019-04-14T17:31:49.603Z,19.60
2019-04-14T17:34:09.855Z,18.30
2019-04-14T17:36:30.316Z,17.60
2019-04-14T17:39:03.896Z,18.00
2019-04-14T17:41:09.219Z,17.67
2019-04-14T17:43:17.347Z,18.27
2019-04-14T17:45:25.077Z,20.33
2019-04-14T17:47:30.400Z,18.70
2019-04-14T17:49:38.155Z,17.93
2019-04-14T17:51:43.441Z,16.60
2019-04-14T17:53:48.814Z,17.07
2019-04-14T17:56:09.130Z,17.53
2019-04-14T17:58:17.427Z,16.23
2019-04-14T18:00:38.874Z,16.67
2019-04-14T18:03:00.707Z,17.33
2019-04-14T18:05:06.855Z,17.90
2019-04-14T18:07:14.944Z,16.23
2019-04-14T18:09:28.621Z,16.40
2019-04-14T18:11:33.281Z,16.20
2019-04-14T18:13:44.464Z,16.87
2019-04-14T18:15:58.286Z,17.17
2019-04-14T18:18:25.382Z,15.80
2019-04-14T18:20:37.070Z,15.10
2019-04-14T18:22:41.681Z,15.63
2019-04-14T18:24:45.391Z,16.10
2019-04-14T18:26:50.648Z,15.30
2019-04-14T18:29:01.649Z,16.30
2019-04-14T18:31:21.961Z,15.77
2019-04-14T18:33:29.677Z,16.83
2019-04-14T18:35:40.806Z,16.77
2019-04-14T18:37:52.121Z,15.17
2019-04-14T18:40:12.815Z,15.53
2019-04-14T18:42:23.987Z,15.37
2019-04-14T18:44:29.255Z,15.30
2019-04-14T18:46:39.719Z,15.70
2019-04-14T18:48:44.992Z,15.50
2019-04-14T18:50:51.990Z,15.93
2019-04-14T18:53:00.244Z,16.30
2019-04-14T18:55:09.089Z,15.77
2019-04-14T18:57:14.454Z,15.33
2019-04-14T18:59:22.891Z,16.73
2019-04-14T19:01:28.187Z,15.70
2019-04-14T19:03:31.922Z,16.30
2019-04-14T19:05:35.878Z,16.13
2019-04-14T19:07:39.837Z,16.17
2019-04-14T19:09:43.638Z,15.30
2019-04-14T19:11:51.559Z,15.93
2019-04-14T19:13:59.837Z,14.83
2019-04-14T19:16:20.346Z,14.57
2019-04-14T19:18:28.492Z,18.63
2019-04-14T19:20:32.343Z,15.83
2019-04-14T19:22:36.190Z,14.67
2019-04-14T19:24:41.631Z,14.40
2019-04-14T19:26:45.354Z,14.20
2019-04-14T19:28:49.051Z,14.63
2019-04-14T19:30:52.768Z,14.07
2019-04-14T19:32:56.441Z,13.70
2019-04-14T19:35:00.122Z,12.43
2019-04-14T19:37:03.802Z,11.83
2019-04-14T19:39:10.359Z,11.90
2019-04-14T19:41:14.059Z,13.87
2019-04-14T19:43:23.735Z,12.23
2019-04-14T19:45:23.269Z,12.33
2019-04-14T19:47:26.920Z,12.70
2019-04-14T19:49:30.599Z,12.23
2019-04-14T19:51:34.282Z,12.77
2019-04-14T19:53:37.969Z,11.97
2019-04-14T19:55:41.682Z,11.67
2019-04-14T19:57:45.367Z,11.67
2019-04-14T19:59:49.042Z,12.27
2019-04-14T20:01:52.726Z,11.83
2019-04-14T20:03:56.474Z,10.80
2019-04-14T20:06:00.150Z,11.73
2019-04-14T20:08:03.829Z,11.13
2019-04-14T20:10:08.792Z,11.37
2019-04-14T20:12:13.401Z,11.20
2019-04-14T20:14:17.060Z,11.50
2019-04-14T20:16:27.799Z,11.57
2019-04-14T20:18:49.074Z,11.20
2019-04-14T20:20:57.039Z,11.40
2019-04-14T20:23:11.425Z,11.53
2019-04-14T20:25:33.043Z,11.40
2019-04-14T20:27:35.089Z,11.50
2019-04-14T20:29:52.517Z,11.33
2019-04-14T20:31:57.783Z,10.90
2019-04-14T20:34:01.540Z,11.40
2019-04-14T20:36:05.456Z,11.60
2019-04-14T20:38:09.287Z,11.27
2019-04-14T20:40:12.945Z,11.23
2019-04-14T20:42:16.632Z,11.27
2019-04-14T20:44:20.394Z,11.27
2019-04-14T20:46:24.071Z,10.30
2019-04-14T20:48:27.746Z,10.87
2019-04-14T20:50:31.419Z,10.13
2019-04-14T20:52:38.284Z,10.67
2019-04-14T20:54:41.961Z,11.03
2019-04-14T20:56:45.627Z,10.33
2019-04-14T20:58:49.328Z,11.10
2019-04-14T21:00:53.007Z,10.60
2019-04-14T21:03:04.096Z,11.27
2019-04-14T21:05:27.490Z,11.10
2019-04-14T21:07:49.039Z,11.23
2019-04-14T21:09:54.293Z,10.40
2019-04-14T21:11:59.520Z,10.73
2019-04-14T21:14:19.902Z,10.90
2019-04-14T21:16:36.918Z,11.30
2019-04-14T21:18:50.982Z,11.50
2019-04-14T21:21:05.163Z,11.40
2019-04-14T21:23:30.134Z,10.67
2019-04-14T21:25:44.023Z,10.20
2019-04-14T21:27:52.187Z,10.70
2019-04-14T21:29:57.451Z,11.20
2019-04-14T21:32:02.698Z,11.30
2019-04-14T21:34:13.633Z,10.97
2019-04-14T21:36:18.881Z,10.60
2019-04-14T21:38:29.927Z,10.70
2019-04-14T21:40:44.179Z,10.90
2019-04-14T21:42:47.838Z,11.03
2019-04-14T21:44:51.539Z,11.23
2019-04-14T21:46:55.203Z,12.23
2019-04-14T21:48:58.882Z,11.33
2019-04-14T21:51:02.584Z,12.10
2019-04-14T21:53:06.268Z,11.40
2019-04-14T21:55:09.951Z,11.30
2019-04-14T21:57:30.405Z,10.90
2019-04-14T21:59:35.990Z,12.47
2019-04-14T22:01:57.383Z,11.37
2019-04-14T22:04:02.637Z,12.57
2019-04-14T22:06:07.883Z,12.30
2019-04-14T22:08:13.118Z,12.03
2019-04-14T22:10:24.151Z,12.07
2019-04-14T22:12:28.129Z,11.73
2019-04-14T22:14:31.790Z,11.47
2019-04-14T22:16:36.295Z,12.43
2019-04-14T22:18:39.968Z,12.30
2019-04-14T22:20:43.773Z,12.63
2019-04-14T22:22:47.442Z,11.60
2019-04-14T22:24:51.171Z,11.93
2019-04-14T22:26:56.024Z,12.90
2019-04-14T22:29:02.211Z,12.53
2019-04-14T22:31:05.143Z,12.33
2019-04-14T22:33:08.798Z,11.80
2019-04-14T22:35:12.591Z,11.67
2019-04-14T22:37:16.275Z,11.73
2019-04-14T22:39:20.065Z,11.97
2019-04-14T22:41:23.753Z,11.83
2019-04-14T22:43:27.525Z,12.43
2019-04-14T22:45:31.195Z,12.73
2019-04-14T22:47:34.950Z,12.50
2019-04-14T22:49:38.630Z,11.97
2019-04-14T22:51:42.297Z,11.30
2019-04-14T22:53:45.986Z,12.13
2019-04-14T22:55:49.685Z,12.83
2019-04-14T22:57:53.392Z,12.13
2019-04-14T22:59:57.048Z,13.30
2019-04-14T23:02:07.750Z,12.87
2019-04-14T23:04:16.334Z,13.20
2019-04-14T23:06:37.814Z,13.30
2019-04-14T23:08:43.046Z,12.90
2019-04-14T23:11:04.352Z,12.73
2019-04-14T23:13:12.310Z,13.23
2019-04-14T23:15:17.555Z,12.80
2019-04-14T23:17:23.135Z,12.90
2019-04-14T23:19:28.426Z,13.60
2019-04-14T23:21:33.910Z,13.73
2019-04-14T23:23:39.184Z,13.27
2019-04-14T23:25:42.911Z,14.10
2019-04-14T23:27:46.730Z,13.37
2019-04-14T23:29:50.402Z,14.17
2019-04-14T23:31:54.206Z,14.10
2019-04-14T23:33:57.879Z,13.77
2019-04-14T23:36:01.514Z,14.40
2019-04-14T23:38:05.218Z,13.80
2019-04-14T23:40:08.911Z,13.83
2019-04-14T23:42:12.634Z,14.50
2019-04-14T23:44:16.291Z,13.80
2019-04-14T23:46:20.109Z,14.33
2019-04-14T23:48:23.931Z,14.23
2019-04-14T23:50:27.586Z,12.83
2019-04-14T23:52:31.287Z,13.47
2019-04-14T23:54:34.969Z,13.50
2019-04-14T23:56:38.779Z,14.13
2019-04-14T23:58:42.467Z,13.50
